GLO7630 SBGR-SUMU
Flight info
| Callsign | GLO7630 |
|---|---|
| Flight time | 2h 46m |
| Altitude | 38000 |
| Route | UBSOD UZ38 UMDEX DCT CXS DCT NIGRO UM792 CRR |
| Aircraft | B738/M-SDE2E3FGHIRWXY/LB1 |
Departure
| Time | 2026-04-25 14:01 |
|---|---|
| Airport | São Paulo/Guarulhos–Governor André Franco Montoro International Airport (SBGR) |
Arrival
| Time | 2026-04-25 16:47 |
|---|---|
| Airport | Carrasco General Cesáreo L. Berisso International Airport (SUMU) |
| Time | Latitude | Longitude | Altitude | Speed | Heading |
|---|---|---|---|---|---|
| 2026-04-25 13:44 | -23.42938 | -46.48226 | 2464 ft | 0 kts | 324° |
| 2026-04-25 13:52 | -23.42943 | -46.48222 | 2467 ft | 4 kts | 325° |
| 2026-04-25 13:52 | -23.42966 | -46.48206 | 2464 ft | 4 kts | 327° |
| 2026-04-25 13:52 | -23.42989 | -46.48191 | 2466 ft | 4 kts | 331° |
| 2026-04-25 13:53 | -23.43013 | -46.48177 | 2464 ft | 4 kts | 340° |
| 2026-04-25 13:53 | -23.43038 | -46.48172 | 2464 ft | 4 kts | 13° |
| 2026-04-25 13:53 | -23.43050 | -46.48178 | 2464 ft | 0 kts | 60° |
| 2026-04-25 13:55 | -23.43047 | -46.48159 | 2464 ft | 6 kts | 88° |
| 2026-04-25 13:55 | -23.43085 | -46.48115 | 2465 ft | 9 kts | 124° |
| 2026-04-25 13:55 | -23.43089 | -46.48034 | 2467 ft | 14 kts | 73° |
| 2026-04-25 13:56 | -23.43055 | -46.47908 | 2464 ft | 20 kts | 73° |
| 2026-04-25 13:56 | -23.43014 | -46.47760 | 2463 ft | 21 kts | 73° |
| 2026-04-25 13:56 | -23.42974 | -46.47608 | 2462 ft | 21 kts | 73° |
| 2026-04-25 13:56 | -23.42934 | -46.47460 | 2465 ft | 20 kts | 73° |
| 2026-04-25 13:57 | -23.42895 | -46.47316 | 2463 ft | 19 kts | 74° |
| 2026-04-25 13:57 | -23.42870 | -46.47223 | 2463 ft | 19 kts | 73° |
| 2026-04-25 13:57 | -23.42822 | -46.47044 | 2465 ft | 19 kts | 73° |
| 2026-04-25 13:57 | -23.42783 | -46.46901 | 2467 ft | 21 kts | 74° |
| 2026-04-25 13:58 | -23.42741 | -46.46745 | 2463 ft | 21 kts | 73° |
| 2026-04-25 13:58 | -23.42699 | -46.46589 | 2462 ft | 22 kts | 73° |
| 2026-04-25 13:58 | -23.42655 | -46.46425 | 2462 ft | 22 kts | 73° |
| 2026-04-25 13:58 | -23.42611 | -46.46266 | 2462 ft | 22 kts | 73° |
| 2026-04-25 13:59 | -23.42574 | -46.46124 | 2462 ft | 12 kts | 74° |
| 2026-04-25 13:59 | -23.42616 | -46.46057 | 2462 ft | 12 kts | 163° |
| 2026-04-25 13:59 | -23.42675 | -46.46038 | 2461 ft | 10 kts | 164° |
| 2026-04-25 13:59 | -23.42745 | -46.46016 | 2461 ft | 10 kts | 164° |
| 2026-04-25 14:00 | -23.42801 | -46.46024 | 2458 ft | 6 kts | 227° |
| 2026-04-25 14:00 | -23.42808 | -46.46045 | 2459 ft | 0 kts | 252° |
| 2026-04-25 14:00 | -23.42810 | -46.46049 | 2465 ft | 7 kts | 252° |
| 2026-04-25 14:00 | -23.42888 | -46.46338 | 2465 ft | 75 kts | 253° |
| 2026-04-25 14:01 | -23.43097 | -46.47115 | 2466 ft | 137 kts | 253° |
| 2026-04-25 14:01 | -23.43409 | -46.48251 | 2722 ft | 166 kts | 259° |
| 2026-04-25 14:01 | -23.43732 | -46.49482 | 3455 ft | 167 kts | 257° |
| 2026-04-25 14:01 | -23.44072 | -46.50715 | 4161 ft | 171 kts | 255° |
| 2026-04-25 14:02 | -23.44432 | -46.52018 | 4574 ft | 194 kts | 257° |
| 2026-04-25 14:02 | -23.44846 | -46.53517 | 4808 ft | 216 kts | 255° |
| 2026-04-25 14:02 | -23.45288 | -46.55086 | 5435 ft | 216 kts | 255° |
| 2026-04-25 14:02 | -23.45695 | -46.56079 | 5836 ft | 220 kts | 237° |
| 2026-04-25 14:03 | -23.47362 | -46.57338 | 6667 ft | 230 kts | 200° |
| 2026-04-25 14:03 | -23.48987 | -46.57444 | 7259 ft | 239 kts | 178° |
| 2026-04-25 14:03 | -23.50637 | -46.57207 | 7889 ft | 239 kts | 176° |
| 2026-04-25 14:03 | -23.52291 | -46.56963 | 8461 ft | 241 kts | 176° |
| 2026-04-25 14:04 | -23.53962 | -46.56716 | 8979 ft | 246 kts | 175° |
| 2026-04-25 14:04 | -23.55731 | -46.56455 | 9249 ft | 264 kts | 175° |
| 2026-04-25 14:04 | -23.57580 | -46.56185 | 9906 ft | 269 kts | 176° |
| 2026-04-25 14:04 | -23.59402 | -46.56368 | 10638 ft | 261 kts | 204° |
| 2026-04-25 14:05 | -23.60886 | -46.57458 | 11278 ft | 261 kts | 230° |
| 2026-04-25 14:05 | -23.61804 | -46.59154 | 11943 ft | 261 kts | 251° |
| 2026-04-25 14:05 | -23.62206 | -46.61084 | 12660 ft | 263 kts | 259° |
| 2026-04-25 14:05 | -23.62477 | -46.63079 | 13281 ft | 270 kts | 261° |
| 2026-04-25 14:06 | -23.62758 | -46.65098 | 13914 ft | 274 kts | 255° |
| 2026-04-25 14:06 | -23.63547 | -46.67009 | 14351 ft | 285 kts | 237° |
| 2026-04-25 14:06 | -23.64649 | -46.68850 | 14867 ft | 292 kts | 237° |
| 2026-04-25 14:06 | -23.65763 | -46.70706 | 15587 ft | 293 kts | 238° |
| 2026-04-25 14:07 | -23.66875 | -46.72584 | 16252 ft | 296 kts | 238° |
| 2026-04-25 14:07 | -23.67990 | -46.74491 | 16948 ft | 299 kts | 239° |
| 2026-04-25 14:07 | -23.69105 | -46.76406 | 17672 ft | 300 kts | 239° |
| 2026-04-25 14:07 | -23.70233 | -46.78333 | 18361 ft | 302 kts | 237° |
| 2026-04-25 14:08 | -23.71728 | -46.79977 | 18893 ft | 311 kts | 218° |
| 2026-04-25 14:08 | -23.73559 | -46.81213 | 19501 ft | 314 kts | 214° |
| 2026-04-25 14:08 | -23.75458 | -46.82397 | 20138 ft | 314 kts | 213° |
| 2026-04-25 14:08 | -23.77369 | -46.83571 | 20706 ft | 317 kts | 213° |
| 2026-04-25 14:09 | -23.79309 | -46.84766 | 21238 ft | 321 kts | 214° |
| 2026-04-25 14:09 | -23.81257 | -46.85972 | 21826 ft | 322 kts | 214° |
| 2026-04-25 14:09 | -23.83206 | -46.87187 | 22408 ft | 323 kts | 214° |
| 2026-04-25 14:09 | -23.84501 | -46.87999 | 22728 ft | 324 kts | 214° |
| 2026-04-25 14:10 | -23.87131 | -46.89650 | 23368 ft | 327 kts | 214° |
| 2026-04-25 14:10 | -23.89114 | -46.90899 | 23790 ft | 329 kts | 214° |
| 2026-04-25 14:10 | -23.91106 | -46.92155 | 24183 ft | 331 kts | 214° |
| 2026-04-25 14:10 | -23.93080 | -46.93401 | 24578 ft | 332 kts | 214° |
| 2026-04-25 14:11 | -23.95087 | -46.94670 | 24978 ft | 334 kts | 215° |
| 2026-04-25 14:11 | -23.97109 | -46.95949 | 25353 ft | 336 kts | 215° |
| 2026-04-25 14:11 | -23.99140 | -46.97234 | 25748 ft | 338 kts | 215° |
| 2026-04-25 14:11 | -24.01187 | -46.98530 | 26128 ft | 340 kts | 215° |
| 2026-04-25 14:12 | -24.03241 | -46.99830 | 26509 ft | 342 kts | 215° |
| 2026-04-25 14:12 | -24.05303 | -47.01136 | 26888 ft | 343 kts | 215° |
| 2026-04-25 14:12 | -24.07377 | -47.02450 | 27266 ft | 345 kts | 215° |
| 2026-04-25 14:12 | -24.09461 | -47.03771 | 27621 ft | 347 kts | 215° |
| 2026-04-25 14:13 | -24.11557 | -47.05100 | 27998 ft | 349 kts | 215° |
| 2026-04-25 14:13 | -24.13664 | -47.06437 | 28358 ft | 350 kts | 216° |
| 2026-04-25 14:13 | -24.15782 | -47.07781 | 28686 ft | 353 kts | 216° |
| 2026-04-25 14:13 | -24.17887 | -47.09117 | 29024 ft | 355 kts | 216° |
| 2026-04-25 14:14 | -24.20026 | -47.10475 | 29400 ft | 356 kts | 216° |
| 2026-04-25 14:14 | -24.22172 | -47.11839 | 29787 ft | 357 kts | 216° |
| 2026-04-25 14:14 | -24.24330 | -47.13210 | 30125 ft | 359 kts | 216° |
| 2026-04-25 14:14 | -24.26494 | -47.14587 | 30392 ft | 361 kts | 216° |
| 2026-04-25 14:15 | -24.28640 | -47.16025 | 30646 ft | 362 kts | 218° |
| 2026-04-25 14:15 | -24.32907 | -47.19003 | 31200 ft | 364 kts | 218° |
| 2026-04-25 14:15 | -24.35051 | -47.20508 | 31478 ft | 365 kts | 218° |
| 2026-04-25 14:16 | -24.37174 | -47.21995 | 31730 ft | 368 kts | 218° |
| 2026-04-25 14:16 | -24.39346 | -47.23514 | 31950 ft | 371 kts | 218° |
| 2026-04-25 14:16 | -24.41530 | -47.25039 | 32205 ft | 372 kts | 218° |
| 2026-04-25 14:16 | -24.43725 | -47.26569 | 32473 ft | 374 kts | 218° |
| 2026-04-25 14:17 | -24.45928 | -47.28104 | 32713 ft | 375 kts | 218° |
| 2026-04-25 14:17 | -24.48111 | -47.29625 | 32954 ft | 377 kts | 218° |
| 2026-04-25 14:17 | -24.50338 | -47.31176 | 33186 ft | 379 kts | 218° |
| 2026-04-25 14:17 | -24.52569 | -47.32729 | 33439 ft | 380 kts | 218° |
| 2026-04-25 14:18 | -24.54808 | -47.34289 | 33671 ft | 382 kts | 218° |
| 2026-04-25 14:18 | -24.57061 | -47.35860 | 33874 ft | 384 kts | 218° |
| 2026-04-25 14:18 | -24.59323 | -47.37439 | 34067 ft | 386 kts | 218° |
| 2026-04-25 14:18 | -24.61563 | -47.39003 | 34272 ft | 387 kts | 218° |
| 2026-04-25 14:19 | -24.63841 | -47.40592 | 34505 ft | 387 kts | 218° |
| 2026-04-25 14:19 | -24.66115 | -47.42179 | 34744 ft | 387 kts | 218° |
| 2026-04-25 14:19 | -24.68387 | -47.43767 | 34946 ft | 388 kts | 218° |
| 2026-04-25 14:19 | -24.70666 | -47.45361 | 35135 ft | 389 kts | 218° |
| 2026-04-25 14:20 | -24.72949 | -47.46959 | 35325 ft | 390 kts | 218° |
| 2026-04-25 14:20 | -24.77536 | -47.50171 | 35695 ft | 391 kts | 218° |
| 2026-04-25 14:20 | -24.79841 | -47.51785 | 35891 ft | 392 kts | 218° |
| 2026-04-25 14:21 | -24.82149 | -47.53403 | 36097 ft | 393 kts | 218° |
| 2026-04-25 14:21 | -24.84427 | -47.55000 | 36283 ft | 393 kts | 218° |
| 2026-04-25 14:21 | -24.86735 | -47.56619 | 36461 ft | 393 kts | 218° |
| 2026-04-25 14:21 | -24.89048 | -47.58242 | 36627 ft | 394 kts | 218° |
| 2026-04-25 14:22 | -24.91366 | -47.59870 | 36795 ft | 395 kts | 218° |
| 2026-04-25 14:22 | -24.93688 | -47.61501 | 36947 ft | 396 kts | 218° |
| 2026-04-25 14:22 | -24.96017 | -47.63137 | 37105 ft | 397 kts | 218° |
| 2026-04-25 14:22 | -24.98348 | -47.64777 | 37271 ft | 398 kts | 218° |
| 2026-04-25 14:23 | -25.00683 | -47.66419 | 37442 ft | 398 kts | 218° |
| 2026-04-25 14:23 | -25.03020 | -47.68063 | 37591 ft | 399 kts | 218° |
| 2026-04-25 14:23 | -25.05365 | -47.69714 | 37742 ft | 400 kts | 218° |
| 2026-04-25 14:23 | -25.07713 | -47.71366 | 37908 ft | 400 kts | 218° |
| 2026-04-25 14:24 | -25.10065 | -47.73024 | 37969 ft | 402 kts | 218° |
| 2026-04-25 14:24 | -25.14820 | -47.76378 | 37990 ft | 409 kts | 218° |
| 2026-04-25 14:25 | -25.19621 | -47.79769 | 37987 ft | 415 kts | 218° |
| 2026-04-25 14:25 | -25.24519 | -47.83229 | 37986 ft | 420 kts | 218° |
| 2026-04-25 14:26 | -25.26542 | -47.84658 | 37986 ft | 422 kts | 218° |
| 2026-04-25 14:53 | -25.28162 | -47.85804 | 37980 ft | 424 kts | 218° |
| 2026-04-25 14:54 | -25.33144 | -47.89287 | 37978 ft | 422 kts | 218° |
| 2026-04-25 14:54 | -25.38096 | -47.92818 | 37952 ft | 424 kts | 219° |
| 2026-04-25 14:55 | -25.43066 | -47.96412 | 37974 ft | 424 kts | 218° |
| 2026-04-25 14:55 | -25.48013 | -47.99908 | 37945 ft | 417 kts | 219° |
| 2026-04-25 14:56 | -25.52851 | -48.03386 | 37960 ft | 415 kts | 219° |
| 2026-04-25 14:56 | -25.57673 | -48.06840 | 37979 ft | 415 kts | 219° |
| 2026-04-25 14:57 | -25.62533 | -48.10311 | 37957 ft | 415 kts | 219° |
| 2026-04-25 14:57 | -25.67404 | -48.13751 | 37959 ft | 415 kts | 218° |
| 2026-04-25 14:58 | -25.72221 | -48.17192 | 37960 ft | 413 kts | 219° |
| 2026-04-25 14:58 | -25.77127 | -48.20666 | 37973 ft | 422 kts | 220° |
| 2026-04-25 14:59 | -25.82035 | -48.24195 | 37959 ft | 418 kts | 219° |
| 2026-04-25 14:59 | -25.86860 | -48.27670 | 37940 ft | 414 kts | 220° |
| 2026-04-25 15:00 | -25.91749 | -48.31117 | 37964 ft | 416 kts | 219° |
| 2026-04-25 15:00 | -25.96620 | -48.34542 | 37964 ft | 413 kts | 219° |
| 2026-04-25 15:01 | -26.01457 | -48.37998 | 37946 ft | 411 kts | 220° |
| 2026-04-25 15:01 | -26.06237 | -48.41439 | 37962 ft | 415 kts | 220° |
| 2026-04-25 15:02 | -26.11121 | -48.44946 | 37962 ft | 420 kts | 220° |
| 2026-04-25 15:02 | -26.16065 | -48.48490 | 37958 ft | 423 kts | 220° |
| 2026-04-25 15:03 | -26.21003 | -48.52031 | 37958 ft | 424 kts | 220° |
| 2026-04-25 15:03 | -26.25969 | -48.55596 | 37947 ft | 424 kts | 220° |
| 2026-04-25 15:04 | -26.30921 | -48.59165 | 37946 ft | 423 kts | 220° |
| 2026-04-25 15:04 | -26.35815 | -48.62707 | 37970 ft | 421 kts | 220° |
| 2026-04-25 15:05 | -26.40715 | -48.66257 | 37969 ft | 419 kts | 221° |
| 2026-04-25 15:06 | -26.48021 | -48.71558 | 37951 ft | 416 kts | 221° |
| 2026-04-25 15:06 | -26.52853 | -48.75097 | 37949 ft | 414 kts | 221° |
| 2026-04-25 15:07 | -26.57661 | -48.78629 | 37952 ft | 413 kts | 221° |
| 2026-04-25 15:07 | -26.62461 | -48.82156 | 37955 ft | 412 kts | 221° |
| 2026-04-25 15:08 | -26.67256 | -48.85680 | 37978 ft | 412 kts | 221° |
| 2026-04-25 15:08 | -26.72062 | -48.89192 | 37959 ft | 413 kts | 221° |
| 2026-04-25 15:09 | -26.76838 | -48.92678 | 37962 ft | 412 kts | 221° |
| 2026-04-25 15:09 | -26.84040 | -48.97944 | 37957 ft | 412 kts | 221° |
| 2026-04-25 15:10 | -26.88838 | -49.01461 | 37960 ft | 412 kts | 221° |
| 2026-04-25 15:11 | -26.96033 | -49.06742 | 37962 ft | 412 kts | 221° |
| 2026-04-25 15:11 | -27.00831 | -49.10265 | 37974 ft | 411 kts | 221° |
| 2026-04-25 15:12 | -27.08000 | -49.15560 | 37968 ft | 411 kts | 222° |
| 2026-04-25 15:12 | -27.11189 | -49.17880 | 37972 ft | 412 kts | 221° |
| 2026-04-25 15:13 | -27.19976 | -49.24328 | 37963 ft | 412 kts | 221° |
| 2026-04-25 15:14 | -27.24790 | -49.27834 | 37967 ft | 411 kts | 222° |
| 2026-04-25 15:14 | -27.29546 | -49.31410 | 38015 ft | 412 kts | 221° |
| 2026-04-25 15:15 | -27.34331 | -49.34993 | 37991 ft | 412 kts | 222° |
| 2026-04-25 15:15 | -27.39090 | -49.38504 | 38003 ft | 411 kts | 222° |
| 2026-04-25 15:16 | -27.43862 | -49.42066 | 37988 ft | 410 kts | 221° |
| 2026-04-25 15:16 | -27.51028 | -49.47375 | 37969 ft | 410 kts | 222° |
| 2026-04-25 15:17 | -27.57934 | -49.53021 | 38009 ft | 405 kts | 228° |
| 2026-04-25 15:18 | -27.62113 | -49.57229 | 37986 ft | 400 kts | 232° |
| 2026-04-25 15:18 | -27.68282 | -49.63566 | 37996 ft | 399 kts | 230° |
| 2026-04-25 15:19 | -27.71025 | -49.66322 | 37999 ft | 398 kts | 229° |
| 2026-04-25 15:19 | -27.76580 | -49.71851 | 38001 ft | 398 kts | 229° |
| 2026-04-25 15:20 | -27.80717 | -49.76040 | 38012 ft | 400 kts | 230° |
| 2026-04-25 15:20 | -27.84860 | -49.80259 | 37992 ft | 400 kts | 229° |
| 2026-04-25 15:21 | -27.89011 | -49.84454 | 38003 ft | 402 kts | 229° |
| 2026-04-25 15:21 | -27.93149 | -49.88585 | 38014 ft | 397 kts | 229° |
| 2026-04-25 15:22 | -27.97275 | -49.92742 | 38016 ft | 393 kts | 230° |
| 2026-04-25 15:22 | -28.01310 | -49.96892 | 38027 ft | 390 kts | 231° |
| 2026-04-25 15:23 | -28.05300 | -50.00996 | 38028 ft | 391 kts | 230° |
| 2026-04-25 15:23 | -28.09390 | -50.05079 | 38023 ft | 390 kts | 230° |
| 2026-04-25 15:24 | -28.13465 | -50.09159 | 38039 ft | 391 kts | 230° |
| 2026-04-25 15:24 | -28.16127 | -50.11909 | 38026 ft | 390 kts | 231° |
| 2026-04-25 15:25 | -28.21510 | -50.17394 | 38010 ft | 393 kts | 230° |
| 2026-04-25 15:25 | -28.25610 | -50.21536 | 38038 ft | 394 kts | 230° |
| 2026-04-25 15:26 | -28.29012 | -50.25043 | 38065 ft | 396 kts | 230° |
| 2026-04-25 15:26 | -28.33120 | -50.29208 | 38024 ft | 395 kts | 231° |
| 2026-04-25 15:27 | -28.37172 | -50.33370 | 38017 ft | 388 kts | 231° |
| 2026-04-25 15:28 | -28.43146 | -50.39590 | 38032 ft | 393 kts | 230° |
| 2026-04-25 15:28 | -28.47197 | -50.43705 | 38016 ft | 387 kts | 231° |
| 2026-04-25 15:29 | -28.51214 | -50.47818 | 38032 ft | 391 kts | 231° |
| 2026-04-25 15:29 | -28.55242 | -50.51937 | 38020 ft | 388 kts | 232° |
| 2026-04-25 15:30 | -28.59232 | -50.56037 | 38018 ft | 390 kts | 231° |
| 2026-04-25 15:30 | -28.63296 | -50.60152 | 38014 ft | 392 kts | 230° |
| 2026-04-25 15:31 | -28.67338 | -50.64335 | 38028 ft | 393 kts | 232° |
| 2026-04-25 15:31 | -28.71400 | -50.68507 | 38034 ft | 392 kts | 232° |
| 2026-04-25 15:32 | -28.75401 | -50.72666 | 38005 ft | 391 kts | 232° |
| 2026-04-25 15:32 | -28.79416 | -50.76849 | 38019 ft | 390 kts | 232° |
| 2026-04-25 15:33 | -28.85437 | -50.83099 | 37988 ft | 388 kts | 232° |
| 2026-04-25 15:33 | -28.89412 | -50.87221 | 38000 ft | 385 kts | 232° |
| 2026-04-25 15:34 | -28.93379 | -50.91345 | 38027 ft | 386 kts | 232° |
| 2026-04-25 15:34 | -28.96682 | -50.94778 | 38028 ft | 386 kts | 232° |
| 2026-04-25 15:35 | -29.03304 | -51.01672 | 38055 ft | 388 kts | 232° |
| 2026-04-25 15:36 | -29.09300 | -51.07924 | 38062 ft | 389 kts | 232° |
| 2026-04-25 15:36 | -29.13294 | -51.12093 | 38065 ft | 388 kts | 232° |
| 2026-04-25 15:37 | -29.17275 | -51.16253 | 38076 ft | 387 kts | 232° |
| 2026-04-25 15:37 | -29.21242 | -51.20364 | 38076 ft | 388 kts | 231° |
| 2026-04-25 15:38 | -29.25400 | -51.24329 | 38066 ft | 389 kts | 230° |
| 2026-04-25 15:38 | -29.29597 | -51.28263 | 38059 ft | 391 kts | 230° |
| 2026-04-25 15:39 | -29.33799 | -51.32232 | 38055 ft | 390 kts | 230° |
| 2026-04-25 15:39 | -29.37979 | -51.36207 | 38037 ft | 391 kts | 231° |
| 2026-04-25 15:40 | -29.41448 | -51.39517 | 38024 ft | 389 kts | 231° |
| 2026-04-25 15:40 | -29.46288 | -51.44143 | 38004 ft | 388 kts | 231° |
| 2026-04-25 15:41 | -29.50432 | -51.48108 | 37991 ft | 386 kts | 231° |
| 2026-04-25 15:41 | -29.54550 | -51.52052 | 37995 ft | 385 kts | 231° |
| 2026-04-25 15:42 | -29.58636 | -51.55974 | 37998 ft | 385 kts | 231° |
| 2026-04-25 15:42 | -29.62758 | -51.59934 | 38004 ft | 386 kts | 231° |
| 2026-04-25 15:43 | -29.66882 | -51.63902 | 38003 ft | 387 kts | 231° |
| 2026-04-25 15:43 | -29.71021 | -51.67889 | 37998 ft | 389 kts | 231° |
| 2026-04-25 15:44 | -29.75153 | -51.71866 | 37988 ft | 388 kts | 231° |
| 2026-04-25 15:44 | -29.79286 | -51.75848 | 38000 ft | 386 kts | 231° |
| 2026-04-25 15:45 | -29.83400 | -51.79820 | 38001 ft | 385 kts | 231° |
| 2026-04-25 15:45 | -29.86817 | -51.83124 | 37992 ft | 385 kts | 231° |
| 2026-04-25 15:46 | -29.91576 | -51.87729 | 37989 ft | 384 kts | 231° |
| 2026-04-25 15:46 | -29.95660 | -51.91687 | 37990 ft | 383 kts | 231° |
| 2026-04-25 15:47 | -29.99739 | -51.95643 | 37992 ft | 382 kts | 231° |
| 2026-04-25 15:47 | -30.03805 | -51.99594 | 38021 ft | 382 kts | 232° |
| 2026-04-25 15:48 | -30.07871 | -52.03546 | 37994 ft | 381 kts | 232° |
| 2026-04-25 15:48 | -30.11896 | -52.07463 | 37999 ft | 380 kts | 232° |
| 2026-04-25 15:49 | -30.15939 | -52.11402 | 37985 ft | 379 kts | 232° |
| 2026-04-25 15:49 | -30.19968 | -52.15332 | 37997 ft | 378 kts | 232° |
| 2026-04-25 15:50 | -30.23990 | -52.19259 | 37994 ft | 378 kts | 232° |
| 2026-04-25 15:50 | -30.28004 | -52.23183 | 37986 ft | 378 kts | 232° |
| 2026-04-25 15:51 | -30.31343 | -52.26450 | 37994 ft | 377 kts | 232° |
| 2026-04-25 15:51 | -30.36005 | -52.31019 | 37996 ft | 378 kts | 232° |
| 2026-04-25 15:52 | -30.40021 | -52.34957 | 37991 ft | 377 kts | 232° |
| 2026-04-25 15:52 | -30.44030 | -52.38893 | 37996 ft | 377 kts | 232° |
| 2026-04-25 15:53 | -30.48034 | -52.42830 | 37991 ft | 377 kts | 232° |
| 2026-04-25 15:53 | -30.52004 | -52.46737 | 37994 ft | 377 kts | 232° |
| 2026-04-25 15:54 | -30.55997 | -52.50670 | 37994 ft | 376 kts | 232° |
| 2026-04-25 15:54 | -30.59985 | -52.54603 | 38000 ft | 376 kts | 233° |
| 2026-04-25 15:55 | -30.63968 | -52.58536 | 37999 ft | 376 kts | 233° |
| 2026-04-25 15:55 | -30.67952 | -52.62475 | 37995 ft | 376 kts | 233° |
| 2026-04-25 15:56 | -30.71927 | -52.66408 | 38011 ft | 375 kts | 233° |
| 2026-04-25 15:56 | -30.75900 | -52.70343 | 38004 ft | 374 kts | 233° |
| 2026-04-25 15:57 | -30.79831 | -52.74243 | 38004 ft | 373 kts | 233° |
| 2026-04-25 15:57 | -30.83784 | -52.78168 | 38013 ft | 373 kts | 233° |
| 2026-04-25 15:58 | -30.87731 | -52.82091 | 38010 ft | 373 kts | 233° |
| 2026-04-25 15:58 | -30.91675 | -52.86016 | 38003 ft | 372 kts | 234° |
| 2026-04-25 15:59 | -30.95612 | -52.89938 | 38000 ft | 372 kts | 234° |
| 2026-04-25 15:59 | -30.99521 | -52.93836 | 38012 ft | 372 kts | 234° |
| 2026-04-25 16:00 | -31.02152 | -52.96465 | 38074 ft | 372 kts | 234° |
| 2026-04-25 16:00 | -31.07405 | -53.01716 | 38026 ft | 373 kts | 234° |
| 2026-04-25 16:01 | -31.11344 | -53.05659 | 38008 ft | 373 kts | 234° |
| 2026-04-25 16:01 | -31.15276 | -53.09598 | 38016 ft | 372 kts | 234° |
| 2026-04-25 16:02 | -31.19198 | -53.13533 | 38019 ft | 372 kts | 234° |
| 2026-04-25 16:02 | -31.23128 | -53.17480 | 38001 ft | 372 kts | 234° |
| 2026-04-25 16:03 | -31.27044 | -53.21415 | 38012 ft | 371 kts | 234° |
| 2026-04-25 16:03 | -31.30951 | -53.25347 | 38037 ft | 370 kts | 234° |
| 2026-04-25 16:04 | -31.34831 | -53.29258 | 37994 ft | 370 kts | 234° |
| 2026-04-25 16:04 | -31.38738 | -53.33201 | 38015 ft | 372 kts | 234° |
| 2026-04-25 16:05 | -31.42662 | -53.37167 | 38006 ft | 373 kts | 234° |
| 2026-04-25 16:06 | -31.48565 | -53.43135 | 38003 ft | 374 kts | 234° |
| 2026-04-25 16:06 | -31.52512 | -53.47131 | 38006 ft | 374 kts | 234° |
| 2026-04-25 16:07 | -31.56453 | -53.51127 | 38007 ft | 374 kts | 234° |
| 2026-04-25 16:07 | -31.60375 | -53.55109 | 38008 ft | 375 kts | 234° |
| 2026-04-25 16:08 | -31.64325 | -53.59124 | 38002 ft | 374 kts | 234° |
| 2026-04-25 16:08 | -31.68258 | -53.63123 | 38004 ft | 373 kts | 234° |
| 2026-04-25 16:09 | -31.72166 | -53.67108 | 38009 ft | 376 kts | 234° |
| 2026-04-25 16:09 | -31.76121 | -53.71145 | 38007 ft | 376 kts | 234° |
| 2026-04-25 16:10 | -31.80083 | -53.75188 | 38010 ft | 377 kts | 234° |
| 2026-04-25 16:10 | -31.84051 | -53.79245 | 38002 ft | 378 kts | 234° |
| 2026-04-25 16:11 | -31.88000 | -53.83288 | 38003 ft | 379 kts | 234° |
| 2026-04-25 16:11 | -31.91981 | -53.87368 | 38004 ft | 379 kts | 234° |
| 2026-04-25 16:12 | -31.95967 | -53.91441 | 38002 ft | 381 kts | 232° |
| 2026-04-25 16:12 | -32.00395 | -53.95101 | 38001 ft | 390 kts | 228° |
| 2026-04-25 16:13 | -32.04888 | -53.98648 | 38001 ft | 392 kts | 227° |
| 2026-04-25 16:13 | -32.09428 | -54.02256 | 38002 ft | 394 kts | 227° |
| 2026-04-25 16:14 | -32.13203 | -54.05270 | 37996 ft | 394 kts | 227° |
| 2026-04-25 16:14 | -32.17752 | -54.08912 | 37992 ft | 395 kts | 227° |
| 2026-04-25 16:15 | -32.22282 | -54.12542 | 37996 ft | 395 kts | 227° |
| 2026-04-25 16:15 | -32.26840 | -54.16201 | 37997 ft | 395 kts | 227° |
| 2026-04-25 16:16 | -32.31397 | -54.19862 | 37993 ft | 395 kts | 227° |
| 2026-04-25 16:16 | -32.35961 | -54.23441 | 38006 ft | 399 kts | 225° |
| 2026-04-25 16:17 | -32.40757 | -54.26816 | 38014 ft | 401 kts | 224° |
| 2026-04-25 16:17 | -32.45585 | -54.30150 | 38006 ft | 401 kts | 224° |
| 2026-04-25 16:18 | -32.50384 | -54.33495 | 38009 ft | 400 kts | 224° |
| 2026-04-25 16:18 | -32.55135 | -54.36832 | 38008 ft | 399 kts | 224° |
| 2026-04-25 16:19 | -32.59906 | -54.40195 | 38007 ft | 398 kts | 224° |
| 2026-04-25 16:19 | -32.64673 | -54.43563 | 38004 ft | 399 kts | 224° |
| 2026-04-25 16:20 | -32.71821 | -54.48616 | 38008 ft | 398 kts | 224° |
| 2026-04-25 16:21 | -32.78918 | -54.53643 | 38013 ft | 398 kts | 224° |
| 2026-04-25 16:21 | -32.83675 | -54.57019 | 38009 ft | 398 kts | 224° |
| 2026-04-25 16:22 | -32.88448 | -54.60409 | 37999 ft | 399 kts | 224° |
| 2026-04-25 16:22 | -32.93221 | -54.63805 | 38009 ft | 400 kts | 223° |
| 2026-04-25 16:23 | -32.97963 | -54.67181 | 37994 ft | 400 kts | 223° |
| 2026-04-25 16:23 | -33.02750 | -54.70592 | 38006 ft | 400 kts | 223° |
| 2026-04-25 16:24 | -33.07533 | -54.74009 | 37990 ft | 400 kts | 223° |
| 2026-04-25 16:24 | -33.09923 | -54.75717 | 37817 ft | 403 kts | 223° |
| 2026-04-25 16:24 | -33.12345 | -54.77456 | 37288 ft | 405 kts | 223° |
| 2026-04-25 16:24 | -33.14723 | -54.79156 | 36705 ft | 403 kts | 223° |
| 2026-04-25 16:25 | -33.17120 | -54.80867 | 36106 ft | 400 kts | 223° |
| 2026-04-25 16:25 | -33.18732 | -54.82020 | 35708 ft | 400 kts | 223° |
| 2026-04-25 16:25 | -33.21897 | -54.84290 | 34796 ft | 402 kts | 223° |
| 2026-04-25 16:25 | -33.24295 | -54.86013 | 34111 ft | 403 kts | 222° |
| 2026-04-25 16:26 | -33.26702 | -54.87743 | 33321 ft | 405 kts | 222° |
| 2026-04-25 16:26 | -33.29121 | -54.89481 | 32569 ft | 405 kts | 221° |
| 2026-04-25 16:26 | -33.31546 | -54.91225 | 31816 ft | 406 kts | 221° |
| 2026-04-25 16:26 | -33.33968 | -54.92966 | 31215 ft | 404 kts | 221° |
| 2026-04-25 16:27 | -33.36371 | -54.94690 | 30710 ft | 400 kts | 220° |
| 2026-04-25 16:27 | -33.38717 | -54.96378 | 30203 ft | 397 kts | 220° |
| 2026-04-25 16:27 | -33.41078 | -54.98080 | 29616 ft | 394 kts | 220° |
| 2026-04-25 16:27 | -33.43418 | -54.99768 | 29051 ft | 389 kts | 220° |
| 2026-04-25 16:28 | -33.45728 | -55.01435 | 28528 ft | 385 kts | 220° |
| 2026-04-25 16:28 | -33.48061 | -55.03128 | 28006 ft | 401 kts | 220° |
| 2026-04-25 16:28 | -33.50513 | -55.04915 | 27445 ft | 423 kts | 219° |
| 2026-04-25 16:28 | -33.53030 | -55.06735 | 26725 ft | 421 kts | 219° |
| 2026-04-25 16:29 | -33.55514 | -55.08525 | 26107 ft | 417 kts | 219° |
| 2026-04-25 16:29 | -33.57998 | -55.10309 | 25309 ft | 415 kts | 218° |
| 2026-04-25 16:29 | -33.60482 | -55.12103 | 24705 ft | 423 kts | 218° |
| 2026-04-25 16:29 | -33.63031 | -55.13956 | 24119 ft | 431 kts | 218° |
| 2026-04-25 16:30 | -33.65613 | -55.15830 | 23526 ft | 433 kts | 218° |
| 2026-04-25 16:30 | -33.68155 | -55.17671 | 22840 ft | 429 kts | 217° |
| 2026-04-25 16:30 | -33.70695 | -55.19508 | 22244 ft | 424 kts | 217° |
| 2026-04-25 16:30 | -33.73216 | -55.21334 | 21660 ft | 421 kts | 217° |
| 2026-04-25 16:31 | -33.75719 | -55.23151 | 21100 ft | 419 kts | 217° |
| 2026-04-25 16:31 | -33.78218 | -55.24969 | 20528 ft | 419 kts | 217° |
| 2026-04-25 16:31 | -33.80712 | -55.26786 | 19954 ft | 419 kts | 216° |
| 2026-04-25 16:31 | -33.83216 | -55.28611 | 19397 ft | 420 kts | 216° |
| 2026-04-25 16:32 | -33.85685 | -55.30411 | 18824 ft | 421 kts | 216° |
| 2026-04-25 16:32 | -33.88192 | -55.32241 | 18217 ft | 422 kts | 215° |
| 2026-04-25 16:32 | -33.90702 | -55.34073 | 17581 ft | 417 kts | 215° |
| 2026-04-25 16:32 | -33.93161 | -55.35866 | 16990 ft | 411 kts | 215° |
| 2026-04-25 16:33 | -33.95605 | -55.37652 | 16420 ft | 409 kts | 214° |
| 2026-04-25 16:33 | -33.98033 | -55.39426 | 15869 ft | 406 kts | 214° |
| 2026-04-25 16:33 | -34.00437 | -55.41184 | 15319 ft | 404 kts | 214° |
| 2026-04-25 16:33 | -34.02838 | -55.42944 | 14786 ft | 402 kts | 214° |
| 2026-04-25 16:34 | -34.05227 | -55.44695 | 14211 ft | 401 kts | 214° |
| 2026-04-25 16:34 | -34.07572 | -55.46415 | 13630 ft | 398 kts | 214° |
| 2026-04-25 16:34 | -34.09919 | -55.48136 | 13042 ft | 392 kts | 213° |
| 2026-04-25 16:34 | -34.12239 | -55.49840 | 12489 ft | 390 kts | 213° |
| 2026-04-25 16:35 | -34.14547 | -55.51537 | 11935 ft | 387 kts | 213° |
| 2026-04-25 16:35 | -34.16822 | -55.53209 | 11395 ft | 378 kts | 213° |
| 2026-04-25 16:35 | -34.19071 | -55.54865 | 10871 ft | 377 kts | 213° |
| 2026-04-25 16:35 | -34.21288 | -55.56498 | 10691 ft | 370 kts | 212° |
| 2026-04-25 16:36 | -34.23503 | -55.58130 | 10502 ft | 373 kts | 212° |
| 2026-04-25 16:36 | -34.24249 | -55.58680 | 10450 ft | 370 kts | 212° |
| 2026-04-25 16:36 | -34.27792 | -55.61291 | 10184 ft | 348 kts | 212° |
| 2026-04-25 16:36 | -34.29829 | -55.62795 | 10042 ft | 337 kts | 212° |
| 2026-04-25 16:37 | -34.31820 | -55.64264 | 9742 ft | 335 kts | 212° |
| 2026-04-25 16:37 | -34.33787 | -55.65705 | 9384 ft | 333 kts | 211° |
| 2026-04-25 16:37 | -34.35962 | -55.66714 | 8870 ft | 338 kts | 195° |
| 2026-04-25 16:37 | -34.38232 | -55.67323 | 8436 ft | 327 kts | 194° |
| 2026-04-25 16:38 | -34.40416 | -55.67896 | 8064 ft | 314 kts | 194° |
| 2026-04-25 16:38 | -34.42519 | -55.68457 | 7727 ft | 305 kts | 194° |
| 2026-04-25 16:38 | -34.44577 | -55.69020 | 7407 ft | 301 kts | 194° |
| 2026-04-25 16:38 | -34.46589 | -55.69577 | 7088 ft | 291 kts | 195° |
| 2026-04-25 16:39 | -34.48533 | -55.70121 | 6774 ft | 282 kts | 195° |
| 2026-04-25 16:39 | -34.50395 | -55.70644 | 6462 ft | 275 kts | 195° |
| 2026-04-25 16:39 | -34.52233 | -55.71162 | 6164 ft | 267 kts | 195° |
| 2026-04-25 16:39 | -34.54027 | -55.71670 | 5870 ft | 263 kts | 195° |
| 2026-04-25 16:40 | -34.55812 | -55.72177 | 5583 ft | 262 kts | 195° |
| 2026-04-25 16:40 | -34.57586 | -55.72680 | 5312 ft | 261 kts | 194° |
| 2026-04-25 16:40 | -34.59345 | -55.73179 | 5026 ft | 256 kts | 194° |
| 2026-04-25 16:40 | -34.61047 | -55.73661 | 4798 ft | 246 kts | 194° |
| 2026-04-25 16:41 | -34.62660 | -55.74119 | 4491 ft | 236 kts | 194° |
| 2026-04-25 16:41 | -34.64243 | -55.74568 | 4215 ft | 229 kts | 194° |
| 2026-04-25 16:41 | -34.67143 | -55.75731 | 3923 ft | 217 kts | 224° |
| 2026-04-25 16:42 | -34.68056 | -55.77152 | 3920 ft | 214 kts | 234° |
| 2026-04-25 16:42 | -34.68972 | -55.78596 | 3808 ft | 218 kts | 233° |
| 2026-04-25 16:42 | -34.69892 | -55.80062 | 3700 ft | 213 kts | 233° |
| 2026-04-25 16:42 | -34.70755 | -55.81475 | 3584 ft | 202 kts | 234° |
| 2026-04-25 16:43 | -34.71573 | -55.82828 | 3485 ft | 197 kts | 234° |
| 2026-04-25 16:43 | -34.72376 | -55.84159 | 3258 ft | 195 kts | 234° |
| 2026-04-25 16:43 | -34.73162 | -55.85459 | 3099 ft | 185 kts | 234° |
| 2026-04-25 16:43 | -34.73928 | -55.86725 | 2988 ft | 189 kts | 234° |
| 2026-04-25 16:44 | -34.74714 | -55.88026 | 2749 ft | 190 kts | 233° |
| 2026-04-25 16:44 | -34.75490 | -55.89307 | 2496 ft | 182 kts | 233° |
| 2026-04-25 16:44 | -34.76223 | -55.90516 | 2259 ft | 173 kts | 233° |
| 2026-04-25 16:44 | -34.76913 | -55.91662 | 2034 ft | 164 kts | 233° |
| 2026-04-25 16:45 | -34.77566 | -55.92742 | 1818 ft | 150 kts | 235° |
| 2026-04-25 16:45 | -34.78116 | -55.93711 | 1656 ft | 137 kts | 235° |
| 2026-04-25 16:45 | -34.78692 | -55.94653 | 1449 ft | 136 kts | 233° |
| 2026-04-25 16:45 | -34.79253 | -55.95549 | 1278 ft | 134 kts | 234° |
| 2026-04-25 16:46 | -34.79807 | -55.96467 | 1078 ft | 135 kts | 235° |
| 2026-04-25 16:46 | -34.80358 | -55.97392 | 899 ft | 136 kts | 233° |
| 2026-04-25 16:46 | -34.80931 | -55.98325 | 763 ft | 139 kts | 232° |
| 2026-04-25 16:46 | -34.81128 | -55.98645 | 701 ft | 140 kts | 232° |
| 2026-04-25 16:47 | -34.82087 | -56.00213 | 369 ft | 136 kts | 231° |
| 2026-04-25 16:47 | -34.82647 | -56.01130 | 163 ft | 134 kts | 231° |
| 2026-04-25 16:47 | -34.83185 | -56.02009 | 81 ft | 113 kts | 234° |
| 2026-04-25 16:47 | -34.83521 | -56.02563 | 85 ft | 44 kts | 233° |
| 2026-04-25 16:48 | -34.83646 | -56.02769 | 81 ft | 24 kts | 234° |
| 2026-04-25 16:48 | -34.83747 | -56.02855 | 83 ft | 15 kts | 187° |
| 2026-04-25 16:48 | -34.83852 | -56.02848 | 82 ft | 15 kts | 173° |
| 2026-04-25 16:48 | -34.83944 | -56.02802 | 83 ft | 14 kts | 147° |
| 2026-04-25 16:49 | -34.83965 | -56.02703 | 84 ft | 14 kts | 68° |
| 2026-04-25 16:49 | -34.83946 | -56.02594 | 81 ft | 13 kts | 90° |
| 2026-04-25 16:49 | -34.83947 | -56.02486 | 81 ft | 13 kts | 90° |
| 2026-04-25 16:49 | -34.83929 | -56.02462 | 86 ft | 4 kts | 8° |
| 2026-04-25 16:50 | -34.83878 | -56.02461 | 85 ft | 8 kts | 0° |
| 2026-04-25 16:50 | -34.83869 | -56.02461 | 81 ft | 0 kts | 0° |